sensor_id;sensor_type;location;lat;lon;timestamp;pressure;altitude;pressure_sealevel;temperature;humidity
56721;BME280;53183;47.412;18.884;2023-12-14T00:00:08;97822.22;;;3.67;100.00
56721;BME280;53183;47.412;18.884;2023-12-14T00:02:43;97828.34;;;3.50;100.00
56721;BME280;53183;47.412;18.884;2023-12-14T00:05:12;97830.41;;;3.43;100.00
56721;BME280;53183;47.412;18.884;2023-12-14T00:07:39;97841.16;;;3.37;100.00
56721;BME280;53183;47.412;18.884;2023-12-14T00:10:07;97823.28;;;3.12;100.00
56721;BME280;53183;47.412;18.884;2023-12-14T00:12:42;97824.75;;;3.00;100.00
56721;BME280;53183;47.412;18.884;2023-12-14T00:15:10;97829.09;;;2.82;100.00
56721;BME280;53183;47.412;18.884;2023-12-14T00:17:57;97836.87;;;2.84;100.00
56721;BME280;53183;47.412;18.884;2023-12-14T00:20:25;97840.41;;;2.83;100.00
56721;BME280;53183;47.412;18.884;2023-12-14T00:22:53;97854.16;;;2.87;100.00
56721;BME280;53183;47.412;18.884;2023-12-14T00:25:20;97854.50;;;2.79;100.00
56721;BME280;53183;47.412;18.884;2023-12-14T00:27:48;97859.72;;;2.79;100.00
56721;BME280;53183;47.412;18.884;2023-12-14T00:30:16;97864.38;;;2.72;100.00
56721;BME280;53183;47.412;18.884;2023-12-14T00:32:43;97865.31;;;2.71;100.00
56721;BME280;53183;47.412;18.884;2023-12-14T00:35:12;97877.53;;;2.71;100.00
56721;BME280;53183;47.412;18.884;2023-12-14T00:37:39;97882.72;;;2.71;100.00
56721;BME280;53183;47.412;18.884;2023-12-14T00:40:09;97893.91;;;2.73;100.00
56721;BME280;53183;47.412;18.884;2023-12-14T00:42:37;97899.22;;;2.71;100.00
56721;BME280;53183;47.412;18.884;2023-12-14T00:45:06;97904.34;;;2.73;100.00
56721;BME280;53183;47.412;18.884;2023-12-14T00:47:34;97920.50;;;2.81;100.00
56721;BME280;53183;47.412;18.884;2023-12-14T00:50:03;97922.41;;;2.77;100.00
56721;BME280;53183;47.412;18.884;2023-12-14T00:52:37;97925.56;;;2.84;100.00
56721;BME280;53183;47.412;18.884;2023-12-14T00:55:05;97946.50;;;2.82;100.00
56721;BME280;53183;47.412;18.884;2023-12-14T00:57:32;97953.50;;;2.82;100.00
56721;BME280;53183;47.412;18.884;2023-12-14T01:00:02;97966.19;;;2.90;100.00
56721;BME280;53183;47.412;18.884;2023-12-14T01:02:31;97952.72;;;2.80;100.00
56721;BME280;53183;47.412;18.884;2023-12-14T01:05:00;97955.59;;;2.93;100.00
56721;BME280;53183;47.412;18.884;2023-12-14T01:07:29;97945.53;;;2.85;100.00
56721;BME280;53183;47.412;18.884;2023-12-14T01:09:56;97931.12;;;2.95;100.00
56721;BME280;53183;47.412;18.884;2023-12-14T01:12:23;97927.81;;;2.92;100.00
56721;BME280;53183;47.412;18.884;2023-12-14T01:14:50;97924.22;;;2.94;100.00
56721;BME280;53183;47.412;18.884;2023-12-14T01:17:19;97910.19;;;2.97;100.00
56721;BME280;53183;47.412;18.884;2023-12-14T01:19:47;97912.69;;;2.98;100.00
56721;BME280;53183;47.412;18.884;2023-12-14T01:22:15;97900.28;;;3.03;100.00
56721;BME280;53183;47.412;18.884;2023-12-14T01:24:43;97907.59;;;3.14;100.00
56721;BME280;53183;47.412;18.884;2023-12-14T01:27:10;97912.28;;;3.25;100.00
56721;BME280;53183;47.412;18.884;2023-12-14T01:29:41;97910.34;;;3.28;100.00
56721;BME280;53183;47.412;18.884;2023-12-14T01:32:08;97903.34;;;3.29;100.00
56721;BME280;53183;47.412;18.884;2023-12-14T01:34:36;97902.16;;;3.36;100.00
56721;BME280;53183;47.412;18.884;2023-12-14T01:37:11;97901.06;;;3.40;100.00
56721;BME280;53183;47.412;18.884;2023-12-14T01:39:38;97898.47;;;3.40;100.00
56721;BME280;53183;47.412;18.884;2023-12-14T01:42:06;97900.78;;;3.46;100.00
56721;BME280;53183;47.412;18.884;2023-12-14T01:44:34;97896.53;;;3.44;100.00
56721;BME280;53183;47.412;18.884;2023-12-14T01:47:05;97889.47;;;3.46;100.00
56721;BME280;53183;47.412;18.884;2023-12-14T01:49:33;97890.53;;;3.42;100.00
56721;BME280;53183;47.412;18.884;2023-12-14T01:52:01;97897.16;;;3.49;100.00
56721;BME280;53183;47.412;18.884;2023-12-14T01:54:29;97902.19;;;3.52;100.00
56721;BME280;53183;47.412;18.884;2023-12-14T01:56:57;97909.81;;;3.57;100.00
56721;BME280;53183;47.412;18.884;2023-12-14T01:59:24;97921.88;;;3.59;100.00
56721;BME280;53183;47.412;18.884;2023-12-14T02:01:55;97923.03;;;3.53;100.00
56721;BME280;53183;47.412;18.884;2023-12-14T02:04:24;97938.94;;;3.49;100.00
56721;BME280;53183;47.412;18.884;2023-12-14T02:06:52;97940.69;;;3.48;100.00
56721;BME280;53183;47.412;18.884;2023-12-14T02:09:20;97939.16;;;3.44;100.00
56721;BME280;53183;47.412;18.884;2023-12-14T02:11:48;97935.41;;;3.50;100.00
56721;BME280;53183;47.412;18.884;2023-12-14T02:14:15;97929.41;;;3.48;100.00
56721;BME280;53183;47.412;18.884;2023-12-14T02:16:42;97912.22;;;3.44;100.00
56721;BME280;53183;47.412;18.884;2023-12-14T02:19:10;97906.06;;;3.45;100.00
56721;BME280;53183;47.412;18.884;2023-12-14T02:21:38;97909.50;;;3.45;100.00
56721;BME280;53183;47.412;18.884;2023-12-14T02:24:05;97906.75;;;3.48;100.00
56721;BME280;53183;47.412;18.884;2023-12-14T02:26:33;97906.44;;;3.55;100.00
56721;BME280;53183;47.412;18.884;2023-12-14T02:29:00;97902.28;;;3.50;100.00
56721;BME280;53183;47.412;18.884;2023-12-14T02:31:29;97903.91;;;3.53;100.00
56721;BME280;53183;47.412;18.884;2023-12-14T02:33:57;97906.00;;;3.46;100.00
56721;BME280;53183;47.412;18.884;2023-12-14T02:36:24;97924.19;;;3.48;100.00
56721;BME280;53183;47.412;18.884;2023-12-14T02:38:52;97934.25;;;3.56;100.00
56721;BME280;53183;47.412;18.884;2023-12-14T02:41:20;97927.41;;;3.53;100.00
56721;BME280;53183;47.412;18.884;2023-12-14T02:43:47;97925.66;;;3.53;100.00
56721;BME280;53183;47.412;18.884;2023-12-14T02:46:15;97923.97;;;3.52;100.00
56721;BME280;53183;47.412;18.884;2023-12-14T02:48:43;97920.13;;;3.60;100.00
56721;BME280;53183;47.412;18.884;2023-12-14T02:51:14;97920.34;;;3.55;100.00
56721;BME280;53183;47.412;18.884;2023-12-14T02:53:42;97916.03;;;3.54;100.00
56721;BME280;53183;47.412;18.884;2023-12-14T02:56:10;97902.59;;;3.62;100.00
56721;BME280;53183;47.412;18.884;2023-12-14T02:58:38;97908.53;;;3.65;100.00
56721;BME280;53183;47.412;18.884;2023-12-14T03:01:06;97907.50;;;3.68;100.00
56721;BME280;53183;47.412;18.884;2023-12-14T03:03:34;97917.03;;;3.69;100.00
56721;BME280;53183;47.412;18.884;2023-12-14T03:06:02;97914.59;;;3.66;100.00
56721;BME280;53183;47.412;18.884;2023-12-14T03:08:30;97923.16;;;3.68;100.00
56721;BME280;53183;47.412;18.884;2023-12-14T03:10:58;97924.72;;;3.72;100.00
56721;BME280;53183;47.412;18.884;2023-12-14T03:13:26;97930.53;;;3.77;100.00
56721;BME280;53183;47.412;18.884;2023-12-14T03:15:53;97922.03;;;3.73;100.00
56721;BME280;53183;47.412;18.884;2023-12-14T03:18:21;97933.25;;;3.75;100.00
56721;BME280;53183;47.412;18.884;2023-12-14T03:20:48;97940.56;;;3.69;100.00
56721;BME280;53183;47.412;18.884;2023-12-14T03:23:15;97949.16;;;3.71;100.00
56721;BME280;53183;47.412;18.884;2023-12-14T03:25:43;97963.12;;;3.70;100.00
56721;BME280;53183;47.412;18.884;2023-12-14T03:28:10;97972.75;;;3.69;100.00
56721;BME280;53183;47.412;18.884;2023-12-14T03:30:38;97984.62;;;3.75;100.00
56721;BME280;53183;47.412;18.884;2023-12-14T03:33:05;97987.09;;;3.61;100.00
56721;BME280;53183;47.412;18.884;2023-12-14T03:35:35;97999.31;;;3.60;100.00
56721;BME280;53183;47.412;18.884;2023-12-14T03:38:04;98006.47;;;3.57;100.00
56721;BME280;53183;47.412;18.884;2023-12-14T03:40:32;98014.16;;;3.60;100.00
56721;BME280;53183;47.412;18.884;2023-12-14T03:42:59;98009.84;;;3.59;100.00
56721;BME280;53183;47.412;18.884;2023-12-14T03:45:26;98008.69;;;3.64;100.00
56721;BME280;53183;47.412;18.884;2023-12-14T03:47:53;98011.25;;;3.66;100.00
56721;BME280;53183;47.412;18.884;2023-12-14T03:50:21;98015.84;;;3.61;100.00
56721;BME280;53183;47.412;18.884;2023-12-14T03:52:49;98010.69;;;3.59;100.00
56721;BME280;53183;47.412;18.884;2023-12-14T03:55:17;98014.59;;;3.50;100.00
56721;BME280;53183;47.412;18.884;2023-12-14T03:57:44;98012.63;;;3.56;100.00
56721;BME280;53183;47.412;18.884;2023-12-14T04:00:12;98009.84;;;3.59;100.00
56721;BME280;53183;47.412;18.884;2023-12-14T04:02:42;98007.25;;;3.59;100.00
56721;BME280;53183;47.412;18.884;2023-12-14T04:05:10;98015.97;;;3.58;100.00
56721;BME280;53183;47.412;18.884;2023-12-14T04:07:40;98010.31;;;3.67;100.00
56721;BME280;53183;47.412;18.884;2023-12-14T04:10:10;98017.22;;;3.68;100.00
56721;BME280;53183;47.412;18.884;2023-12-14T04:12:38;98015.69;;;3.64;100.00
56721;BME280;53183;47.412;18.884;2023-12-14T04:15:07;98028.97;;;3.59;100.00
56721;BME280;53183;47.412;18.884;2023-12-14T04:17:35;98035.22;;;3.74;100.00
56721;BME280;53183;47.412;18.884;2023-12-14T04:20:05;98038.31;;;3.82;100.00
56721;BME280;53183;47.412;18.884;2023-12-14T04:22:33;98050.59;;;3.80;100.00
56721;BME280;53183;47.412;18.884;2023-12-14T04:25:02;98049.66;;;3.81;100.00
56721;BME280;53183;47.412;18.884;2023-12-14T04:27:29;98044.28;;;3.84;100.00
56721;BME280;53183;47.412;18.884;2023-12-14T04:29:57;98049.81;;;3.78;100.00
56721;BME280;53183;47.412;18.884;2023-12-14T04:32:25;98040.72;;;3.68;100.00
56721;BME280;53183;47.412;18.884;2023-12-14T04:34:52;98040.19;;;3.61;100.00
56721;BME280;53183;47.412;18.884;2023-12-14T04:37:20;98039.19;;;3.46;100.00
56721;BME280;53183;47.412;18.884;2023-12-14T04:39:47;98040.31;;;3.41;100.00
56721;BME280;53183;47.412;18.884;2023-12-14T04:42:15;98055.94;;;3.42;100.00
56721;BME280;53183;47.412;18.884;2023-12-14T04:44:42;98047.84;;;3.47;100.00
56721;BME280;53183;47.412;18.884;2023-12-14T04:47:10;98045.31;;;3.45;100.00
56721;BME280;53183;47.412;18.884;2023-12-14T04:49:37;98050.03;;;3.56;100.00
56721;BME280;53183;47.412;18.884;2023-12-14T04:52:05;98057.47;;;3.46;100.00
56721;BME280;53183;47.412;18.884;2023-12-14T04:54:33;98063.13;;;3.37;100.00
56721;BME280;53183;47.412;18.884;2023-12-14T04:57:04;98065.50;;;3.42;100.00
56721;BME280;53183;47.412;18.884;2023-12-14T04:59:31;98063.75;;;3.42;100.00
56721;BME280;53183;47.412;18.884;2023-12-14T05:01:59;98060.22;;;3.43;100.00
56721;BME280;53183;47.412;18.884;2023-12-14T05:04:26;98062.31;;;3.54;100.00
56721;BME280;53183;47.412;18.884;2023-12-14T05:06:54;98069.44;;;3.50;100.00
56721;BME280;53183;47.412;18.884;2023-12-14T05:09:21;98071.91;;;3.53;100.00
56721;BME280;53183;47.412;18.884;2023-12-14T05:11:49;98076.62;;;3.64;100.00
56721;BME280;53183;47.412;18.884;2023-12-14T05:14:16;98084.38;;;3.66;100.00
56721;BME280;53183;47.412;18.884;2023-12-14T05:16:45;98086.06;;;3.67;100.00
56721;BME280;53183;47.412;18.884;2023-12-14T05:19:28;98087.69;;;3.69;100.00
56721;BME280;53183;47.412;18.884;2023-12-14T05:22:11;98083.91;;;3.58;100.00
56721;BME280;53183;47.412;18.884;2023-12-14T05:24:39;98088.06;;;3.62;100.00
56721;BME280;53183;47.412;18.884;2023-12-14T05:27:06;98099.44;;;3.61;100.00
56721;BME280;53183;47.412;18.884;2023-12-14T05:29:34;98105.63;;;3.58;100.00
56721;BME280;53183;47.412;18.884;2023-12-14T05:32:01;98109.97;;;3.59;100.00
56721;BME280;53183;47.412;18.884;2023-12-14T05:34:29;98108.09;;;3.61;100.00
56721;BME280;53183;47.412;18.884;2023-12-14T05:36:56;98107.34;;;3.59;100.00
56721;BME280;53183;47.412;18.884;2023-12-14T05:39:23;98125.34;;;3.65;100.00
56721;BME280;53183;47.412;18.884;2023-12-14T05:41:51;98126.25;;;3.64;100.00
56721;BME280;53183;47.412;18.884;2023-12-14T05:44:18;98128.81;;;3.66;100.00
56721;BME280;53183;47.412;18.884;2023-12-14T05:46:45;98125.41;;;3.64;100.00
56721;BME280;53183;47.412;18.884;2023-12-14T05:49:12;98130.22;;;3.54;100.00
56721;BME280;53183;47.412;18.884;2023-12-14T05:51:40;98125.13;;;3.51;100.00
56721;BME280;53183;47.412;18.884;2023-12-14T05:54:09;98137.12;;;3.55;100.00
56721;BME280;53183;47.412;18.884;2023-12-14T05:56:36;98133.94;;;3.48;100.00
56721;BME280;53183;47.412;18.884;2023-12-14T05:59:06;98139.19;;;3.48;100.00
56721;BME280;53183;47.412;18.884;2023-12-14T06:01:33;98141.22;;;3.42;100.00
56721;BME280;53183;47.412;18.884;2023-12-14T06:04:01;98145.00;;;3.36;100.00
56721;BME280;53183;47.412;18.884;2023-12-14T06:06:29;98149.72;;;3.47;100.00
56721;BME280;53183;47.412;18.884;2023-12-14T06:08:56;98149.75;;;3.45;100.00
56721;BME280;53183;47.412;18.884;2023-12-14T06:11:23;98153.38;;;3.43;100.00
56721;BME280;53183;47.412;18.884;2023-12-14T06:13:51;98151.13;;;3.35;100.00
56721;BME280;53183;47.412;18.884;2023-12-14T06:16:18;98147.53;;;3.38;100.00
56721;BME280;53183;47.412;18.884;2023-12-14T06:18:45;98150.28;;;3.35;100.00
56721;BME280;53183;47.412;18.884;2023-12-14T06:21:13;98150.34;;;3.33;100.00
56721;BME280;53183;47.412;18.884;2023-12-14T06:23:40;98158.63;;;3.43;100.00
56721;BME280;53183;47.412;18.884;2023-12-14T06:26:10;98169.63;;;3.49;100.00
56721;BME280;53183;47.412;18.884;2023-12-14T06:28:41;98164.72;;;3.61;100.00
56721;BME280;53183;47.412;18.884;2023-12-14T06:31:15;98182.81;;;3.65;100.00
56721;BME280;53183;47.412;18.884;2023-12-14T06:33:42;98183.66;;;3.66;100.00
56721;BME280;53183;47.412;18.884;2023-12-14T06:36:11;98189.66;;;3.68;100.00
56721;BME280;53183;47.412;18.884;2023-12-14T06:38:38;98188.81;;;3.67;100.00
56721;BME280;53183;47.412;18.884;2023-12-14T06:41:07;98195.44;;;3.74;100.00
56721;BME280;53183;47.412;18.884;2023-12-14T06:43:36;98200.66;;;3.74;100.00
56721;BME280;53183;47.412;18.884;2023-12-14T06:46:04;98206.44;;;3.81;100.00
56721;BME280;53183;47.412;18.884;2023-12-14T06:48:31;98213.94;;;3.89;100.00
56721;BME280;53183;47.412;18.884;2023-12-14T06:50:59;98213.09;;;3.88;100.00
56721;BME280;53183;47.412;18.884;2023-12-14T06:53:28;98221.41;;;3.96;100.00
56721;BME280;53183;47.412;18.884;2023-12-14T06:55:58;98220.91;;;4.07;100.00
56721;BME280;53183;47.412;18.884;2023-12-14T06:58:26;98220.13;;;4.05;100.00
56721;BME280;53183;47.412;18.884;2023-12-14T07:00:53;98228.19;;;4.00;100.00
56721;BME280;53183;47.412;18.884;2023-12-14T07:03:20;98227.47;;;3.97;100.00
56721;BME280;53183;47.412;18.884;2023-12-14T07:05:48;98228.75;;;4.07;100.00
56721;BME280;53183;47.412;18.884;2023-12-14T07:08:16;98238.63;;;4.00;100.00
56721;BME280;53183;47.412;18.884;2023-12-14T07:10:43;98244.00;;;3.97;100.00
56721;BME280;53183;47.412;18.884;2023-12-14T07:13:11;98249.88;;;4.03;100.00
56721;BME280;53183;47.412;18.884;2023-12-14T07:15:42;98253.91;;;4.10;100.00
56721;BME280;53183;47.412;18.884;2023-12-14T07:18:11;98261.97;;;4.05;100.00
56721;BME280;53183;47.412;18.884;2023-12-14T07:20:39;98267.06;;;4.08;100.00
56721;BME280;53183;47.412;18.884;2023-12-14T07:23:06;98269.72;;;4.07;100.00
56721;BME280;53183;47.412;18.884;2023-12-14T07:25:33;98269.34;;;4.14;100.00
56721;BME280;53183;47.412;18.884;2023-12-14T07:28:03;98276.63;;;4.27;100.00
56721;BME280;53183;47.412;18.884;2023-12-14T07:30:30;98284.56;;;4.25;100.00
56721;BME280;53183;47.412;18.884;2023-12-14T07:32:57;98279.19;;;4.28;100.00
56721;BME280;53183;47.412;18.884;2023-12-14T07:35:26;98277.59;;;4.24;100.00
56721;BME280;53183;47.412;18.884;2023-12-14T07:37:53;98286.25;;;4.26;100.00
56721;BME280;53183;47.412;18.884;2023-12-14T07:40:21;98291.47;;;4.26;100.00
56721;BME280;53183;47.412;18.884;2023-12-14T07:42:49;98298.88;;;4.35;100.00
56721;BME280;53183;47.412;18.884;2023-12-14T07:45:16;98309.41;;;4.34;100.00
56721;BME280;53183;47.412;18.884;2023-12-14T07:47:43;98301.50;;;4.35;100.00
56721;BME280;53183;47.412;18.884;2023-12-14T07:50:12;98307.56;;;4.36;100.00
56721;BME280;53183;47.412;18.884;2023-12-14T07:52:40;98303.84;;;4.59;100.00
56721;BME280;53183;47.412;18.884;2023-12-14T07:55:08;98308.53;;;4.52;100.00
56721;BME280;53183;47.412;18.884;2023-12-14T07:57:35;98305.00;;;4.53;100.00
56721;BME280;53183;47.412;18.884;2023-12-14T08:00:06;98309.94;;;4.59;100.00
56721;BME280;53183;47.412;18.884;2023-12-14T08:02:35;98315.84;;;4.63;100.00
56721;BME280;53183;47.412;18.884;2023-12-14T08:05:04;98307.88;;;4.66;100.00
56721;BME280;53183;47.412;18.884;2023-12-14T08:07:33;98317.78;;;4.59;100.00
56721;BME280;53183;47.412;18.884;2023-12-14T08:10:01;98319.31;;;4.63;100.00
56721;BME280;53183;47.412;18.884;2023-12-14T08:12:29;98323.84;;;4.60;100.00
56721;BME280;53183;47.412;18.884;2023-12-14T08:15:03;98331.81;;;4.39;100.00
56721;BME280;53183;47.412;18.884;2023-12-14T08:17:31;98325.44;;;4.45;100.00
56721;BME280;53183;47.412;18.884;2023-12-14T08:20:00;98338.38;;;4.48;100.00
56721;BME280;53183;47.412;18.884;2023-12-14T08:22:31;98346.41;;;4.62;100.00
56721;BME280;53183;47.412;18.884;2023-12-14T08:24:58;98341.28;;;4.61;100.00
56721;BME280;53183;47.412;18.884;2023-12-14T08:27:25;98346.19;;;4.67;100.00
56721;BME280;53183;47.412;18.884;2023-12-14T08:29:53;98345.28;;;4.68;100.00
56721;BME280;53183;47.412;18.884;2023-12-14T08:32:21;98351.53;;;4.83;100.00
56721;BME280;53183;47.412;18.884;2023-12-14T08:34:51;98342.38;;;4.91;100.00
56721;BME280;53183;47.412;18.884;2023-12-14T08:37:20;98352.31;;;4.85;100.00
56721;BME280;53183;47.412;18.884;2023-12-14T08:39:48;98354.56;;;5.10;100.00
56721;BME280;53183;47.412;18.884;2023-12-14T08:42:17;98359.28;;;5.21;100.00
56721;BME280;53183;47.412;18.884;2023-12-14T08:44:44;98360.66;;;5.28;100.00
56721;BME280;53183;47.412;18.884;2023-12-14T08:47:12;98366.50;;;5.33;100.00
56721;BME280;53183;47.412;18.884;2023-12-14T08:49:40;98363.97;;;5.31;100.00
56721;BME280;53183;47.412;18.884;2023-12-14T08:52:07;98361.87;;;5.38;100.00
56721;BME280;53183;47.412;18.884;2023-12-14T08:54:35;98373.00;;;5.43;100.00
56721;BME280;53183;47.412;18.884;2023-12-14T08:57:03;98377.91;;;5.49;100.00
56721;BME280;53183;47.412;18.884;2023-12-14T08:59:31;98381.28;;;5.51;100.00
56721;BME280;53183;47.412;18.884;2023-12-14T09:01:58;98387.47;;;5.50;100.00
56721;BME280;53183;47.412;18.884;2023-12-14T09:04:34;98391.88;;;5.50;100.00
56721;BME280;53183;47.412;18.884;2023-12-14T09:07:03;98398.19;;;5.63;100.00
56721;BME280;53183;47.412;18.884;2023-12-14T09:09:31;98401.41;;;5.68;100.00
56721;BME280;53183;47.412;18.884;2023-12-14T09:12:01;98410.94;;;5.69;100.00
56721;BME280;53183;47.412;18.884;2023-12-14T09:14:29;98410.34;;;5.29;100.00
56721;BME280;53183;47.412;18.884;2023-12-14T09:17:16;98405.50;;;5.56;100.00
56721;BME280;53183;47.412;18.884;2023-12-14T09:19:44;98405.69;;;5.69;100.00
56721;BME280;53183;47.412;18.884;2023-12-14T09:22:11;98407.69;;;5.81;100.00
56721;BME280;53183;47.412;18.884;2023-12-14T09:24:39;98407.28;;;5.73;100.00
56721;BME280;53183;47.412;18.884;2023-12-14T09:27:08;98412.72;;;5.86;100.00
56721;BME280;53183;47.412;18.884;2023-12-14T09:29:36;98408.94;;;5.74;100.00
56721;BME280;53183;47.412;18.884;2023-12-14T09:32:04;98414.97;;;5.76;100.00
56721;BME280;53183;47.412;18.884;2023-12-14T09:34:33;98415.56;;;5.81;100.00
56721;BME280;53183;47.412;18.884;2023-12-14T09:37:00;98417.81;;;5.89;100.00
56721;BME280;53183;47.412;18.884;2023-12-14T09:39:29;98427.44;;;5.88;100.00
56721;BME280;53183;47.412;18.884;2023-12-14T09:42:04;98423.91;;;5.72;100.00
56721;BME280;53183;47.412;18.884;2023-12-14T09:44:32;98423.28;;;5.84;100.00
56721;BME280;53183;47.412;18.884;2023-12-14T09:47:01;98427.00;;;5.80;100.00
56721;BME280;53183;47.412;18.884;2023-12-14T09:49:30;98426.53;;;5.55;100.00
56721;BME280;53183;47.412;18.884;2023-12-14T09:52:00;98423.84;;;5.74;100.00
56721;BME280;53183;47.412;18.884;2023-12-14T09:54:28;98437.22;;;5.85;100.00
56721;BME280;53183;47.412;18.884;2023-12-14T09:56:55;98430.22;;;5.85;100.00
56721;BME280;53183;47.412;18.884;2023-12-14T09:59:24;98436.31;;;5.86;100.00
56721;BME280;53183;47.412;18.884;2023-12-14T10:01:52;98439.84;;;5.85;100.00
56721;BME280;53183;47.412;18.884;2023-12-14T10:04:24;98442.12;;;5.93;100.00
56721;BME280;53183;47.412;18.884;2023-12-14T10:06:51;98453.13;;;5.82;100.00
56721;BME280;53183;47.412;18.884;2023-12-14T10:09:22;98452.56;;;5.75;100.00
56721;BME280;53183;47.412;18.884;2023-12-14T10:12:02;98450.59;;;5.63;100.00
56721;BME280;53183;47.412;18.884;2023-12-14T10:14:30;98456.28;;;5.88;100.00
56721;BME280;53183;47.412;18.884;2023-12-14T10:16:58;98449.44;;;5.86;100.00
56721;BME280;53183;47.412;18.884;2023-12-14T10:19:31;98455.09;;;5.96;100.00
56721;BME280;53183;47.412;18.884;2023-12-14T10:21:58;98461.31;;;6.10;100.00
56721;BME280;53183;47.412;18.884;2023-12-14T10:24:28;98471.00;;;5.91;100.00
56721;BME280;53183;47.412;18.884;2023-12-14T10:27:00;98474.34;;;6.12;100.00
56721;BME280;53183;47.412;18.884;2023-12-14T10:29:32;98474.53;;;6.25;100.00
56721;BME280;53183;47.412;18.884;2023-12-14T10:32:05;98478.72;;;6.29;100.00
56721;BME280;53183;47.412;18.884;2023-12-14T10:34:36;98473.84;;;6.21;100.00
56721;BME280;53183;47.412;18.884;2023-12-14T10:37:05;98478.94;;;6.24;100.00
56721;BME280;53183;47.412;18.884;2023-12-14T10:39:34;98474.78;;;6.20;100.00
56721;BME280;53183;47.412;18.884;2023-12-14T10:42:03;98471.91;;;6.25;100.00
56721;BME280;53183;47.412;18.884;2023-12-14T10:44:46;98481.03;;;6.35;100.00
56721;BME280;53183;47.412;18.884;2023-12-14T10:47:35;98478.38;;;6.68;100.00
56721;BME280;53183;47.412;18.884;2023-12-14T10:50:06;98493.09;;;6.71;100.00
56721;BME280;53183;47.412;18.884;2023-12-14T10:52:34;98489.56;;;6.72;100.00
56721;BME280;53183;47.412;18.884;2023-12-14T10:55:07;98488.19;;;6.80;100.00
56721;BME280;53183;47.412;18.884;2023-12-14T10:57:35;98490.81;;;6.80;100.00
56721;BME280;53183;47.412;18.884;2023-12-14T11:00:04;98500.97;;;6.87;100.00
56721;BME280;53183;47.412;18.884;2023-12-14T11:02:45;98500.66;;;6.93;100.00
56721;BME280;53183;47.412;18.884;2023-12-14T11:05:13;98512.25;;;6.89;100.00
56721;BME280;53183;47.412;18.884;2023-12-14T11:07:51;98511.22;;;7.07;100.00
56721;BME280;53183;47.412;18.884;2023-12-14T11:10:52;98506.50;;;7.14;100.00
56721;BME280;53183;47.412;18.884;2023-12-14T11:13:21;98515.66;;;7.22;100.00
56721;BME280;53183;47.412;18.884;2023-12-14T11:15:51;98512.09;;;7.23;100.00
56721;BME280;53183;47.412;18.884;2023-12-14T11:18:26;98513.53;;;7.29;100.00
56721;BME280;53183;47.412;18.884;2023-12-14T11:21:00;98521.34;;;7.15;100.00
56721;BME280;53183;47.412;18.884;2023-12-14T11:23:34;98522.00;;;7.02;100.00
56721;BME280;53183;47.412;18.884;2023-12-14T11:26:06;98519.28;;;7.04;100.00
56721;BME280;53183;47.412;18.884;2023-12-14T11:28:38;98522.84;;;7.03;100.00
56721;BME280;53183;47.412;18.884;2023-12-14T11:31:10;98519.66;;;6.98;100.00
56721;BME280;53183;47.412;18.884;2023-12-14T11:33:38;98524.63;;;6.87;100.00
56721;BME280;53183;47.412;18.884;2023-12-14T11:36:13;98525.28;;;6.90;100.00
56721;BME280;53183;47.412;18.884;2023-12-14T11:38:42;98522.94;;;7.01;100.00
56721;BME280;53183;47.412;18.884;2023-12-14T11:41:10;98521.25;;;7.16;100.00
56721;BME280;53183;47.412;18.884;2023-12-14T11:43:41;98522.41;;;7.26;100.00
56721;BME280;53183;47.412;18.884;2023-12-14T11:46:11;98520.06;;;7.22;100.00
56721;BME280;53183;47.412;18.884;2023-12-14T11:48:39;98526.78;;;7.27;100.00
56721;BME280;53183;47.412;18.884;2023-12-14T11:51:08;98520.31;;;7.33;100.00
56721;BME280;53183;47.412;18.884;2023-12-14T11:53:36;98523.03;;;7.47;100.00
56721;BME280;53183;47.412;18.884;2023-12-14T11:56:12;98521.87;;;7.67;100.00
56721;BME280;53183;47.412;18.884;2023-12-14T11:58:41;98523.47;;;7.70;100.00
56721;BME280;53183;47.412;18.884;2023-12-14T12:01:20;98519.25;;;7.67;100.00
56721;BME280;53183;47.412;18.884;2023-12-14T12:03:52;98524.38;;;7.39;100.00
56721;BME280;53183;47.412;18.884;2023-12-14T12:06:20;98529.66;;;7.69;100.00
56721;BME280;53183;47.412;18.884;2023-12-14T12:08:50;98534.53;;;7.61;100.00
56721;BME280;53183;47.412;18.884;2023-12-14T12:11:23;98536.13;;;7.63;100.00
56721;BME280;53183;47.412;18.884;2023-12-14T12:13:55;98538.44;;;7.54;100.00
56721;BME280;53183;47.412;18.884;2023-12-14T12:16:23;98547.06;;;7.56;100.00
56721;BME280;53183;47.412;18.884;2023-12-14T12:18:51;98543.53;;;7.41;100.00
56721;BME280;53183;47.412;18.884;2023-12-14T12:21:19;98547.88;;;7.42;100.00
56721;BME280;53183;47.412;18.884;2023-12-14T12:23:46;98556.69;;;7.25;100.00
56721;BME280;53183;47.412;18.884;2023-12-14T12:26:15;98556.31;;;6.99;100.00
56721;BME280;53183;47.412;18.884;2023-12-14T12:28:45;98552.84;;;6.99;100.00
56721;BME280;53183;47.412;18.884;2023-12-14T12:31:15;98561.16;;;7.23;100.00
56721;BME280;53183;47.412;18.884;2023-12-14T12:33:42;98566.34;;;7.24;100.00
56721;BME280;53183;47.412;18.884;2023-12-14T12:36:10;98573.72;;;7.18;100.00
56721;BME280;53183;47.412;18.884;2023-12-14T12:38:37;98568.13;;;7.08;100.00
56721;BME280;53183;47.412;18.884;2023-12-14T12:41:07;98574.81;;;6.98;100.00
56721;BME280;53183;47.412;18.884;2023-12-14T12:43:35;98585.34;;;6.80;100.00
56721;BME280;53183;47.412;18.884;2023-12-14T12:46:03;98581.34;;;6.73;100.00
56721;BME280;53183;47.412;18.884;2023-12-14T12:48:31;98592.69;;;6.74;100.00
56721;BME280;53183;47.412;18.884;2023-12-14T12:50:58;98592.47;;;6.78;100.00
56721;BME280;53183;47.412;18.884;2023-12-14T12:53:25;98592.75;;;6.90;100.00
56721;BME280;53183;47.412;18.884;2023-12-14T12:55:54;98592.09;;;7.02;100.00
56721;BME280;53183;47.412;18.884;2023-12-14T12:58:21;98588.88;;;7.13;100.00